Ville De Bordeaux — FZCE — position and weather

sailwx.info

Track history (hours):
 
Tides and Currents Weather Stations Pressure Air Temp Water Temp Dewpoint Dewpoint Depression Visibility Wind Speed Wind Dir Waves Ship Positions

Ville De Bordeaux

Last reported at 2015-Mar-28 19:31 UTC. Time now 2015-Mar-28 22:15 UTC.
Position N 36°55' E 000°05'.

Length 150 m; beam 24 m.

Type: Ship. MMSI: 228084000.

Date/timePositionNaut miles runAvg speedWind from/ knotsBaromVisibWave heightAir tempDewpointWater temp
2015-Mar-28 19:31N 36°55' E 000°05'3216.1
2015-Mar-28 17:31N 37°04' E 000°44'37115.9
2015-Mar-27 18:13N 38°40' E 008°18'2515.1
2015-Mar-27 16:33N 38°47' E 008°50'1817.0
2015-Mar-27 15:29N 38°52' E 009°11'21317.8
2015-Mar-27 03:28N 40°26' E 013°21'1717.9
2015-Mar-27 02:30N 40°34' E 013°41'1718.2
2015-Mar-27 01:33N 40°42' E 014°01'15 3.6
2015-Mar-26 21:33N 40°50' E 014°17'1111.0
2015-Mar-26 20:34N 40°44' E 014°05'1716.8
2015-Mar-26 19:33N 40°36' E 013°45'1717.0
2015-Mar-26 18:33N 40°28' E 013°25'20617.0
2015-Mar-26 06:26N 38°56' E 009°26'1617.7
2015-Mar-26 05:33N 38°51' E 009°07'1717.6
2015-Mar-26 04:33N 38°46' E 008°45'  
2015-Mar-23 09:32N 35°59' W 005°13'24814.5
2015-Mar-22 16:27N 37°47' W 009°51'1516.4
2015-Mar-22 15:33N 38°01' W 009°56'2315.9
2015-Mar-22 14:08N 38°24' W 010°01'916.0
2015-Mar-22 13:33N 38°33' W 010°04'3315.7
2015-Mar-22 11:27N 39°06' W 010°07'  
2015-Mar-19 21:19N 46°53' W 002°31'1215.0
2015-Mar-19 20:31N 47°05' W 002°26'1514.9
2015-Mar-19 19:32N 47°16' W 002°12'2 0.2
2015-Mar-19 08:18N 47°18' W 002°10'0 0.0
2015-Mar-19 07:18N 47°18' W 002°10'0 0.0
2015-Mar-19 05:33N 47°18' W 002°10'8 7.8
2015-Mar-19 04:33N 47°12' W 002°17'1111.4
2015-Mar-19 03:32N 47°03' W 002°29'  
Track history (hours):
 
Tides and Currents Weather Stations Pressure Air Temp Water Temp Dewpoint Dewpoint Depression Visibility Wind Speed Wind Dir Waves Ship Positions

Ville De Bordeaux

Last reported at 2015-Mar-28 19:31 UTC. Time now 2015-Mar-28 22:15 UTC.
Position N 36°55' E 000°05'.

Length 150 m; beam 24 m.

Type: Ship. MMSI: 228084000.

Date/timePositionNaut miles runAvg speedWind from/ knotsBaromVisibWave heightAir tempDewpointWater temp
2015-Mar-28 19:31N 36°55' E 000°05'3216.1
2015-Mar-28 17:31N 37°04' E 000°44'37115.9
2015-Mar-27 18:13N 38°40' E 008°18'2515.1
2015-Mar-27 16:33N 38°47' E 008°50'1817.0
2015-Mar-27 15:29N 38°52' E 009°11'21317.8
2015-Mar-27 03:28N 40°26' E 013°21'1717.9
2015-Mar-27 02:30N 40°34' E 013°41'1718.2
2015-Mar-27 01:33N 40°42' E 014°01'15 3.6
2015-Mar-26 21:33N 40°50' E 014°17'1111.0
2015-Mar-26 20:34N 40°44' E 014°05'1716.8
2015-Mar-26 19:33N 40°36' E 013°45'1717.0
2015-Mar-26 18:33N 40°28' E 013°25'20617.0
2015-Mar-26 06:26N 38°56' E 009°26'1617.7
2015-Mar-26 05:33N 38°51' E 009°07'1717.6
2015-Mar-26 04:33N 38°46' E 008°45'  
2015-Mar-23 09:32N 35°59' W 005°13'24814.5
2015-Mar-22 16:27N 37°47' W 009°51'1516.4
2015-Mar-22 15:33N 38°01' W 009°56'2315.9
2015-Mar-22 14:08N 38°24' W 010°01'916.0
2015-Mar-22 13:33N 38°33' W 010°04'3315.7
2015-Mar-22 11:27N 39°06' W 010°07'  
2015-Mar-19 21:19N 46°53' W 002°31'1215.0
2015-Mar-19 20:31N 47°05' W 002°26'1514.9
2015-Mar-19 19:32N 47°16' W 002°12'2 0.2
2015-Mar-19 08:18N 47°18' W 002°10'0 0.0
2015-Mar-19 07:18N 47°18' W 002°10'0 0.0
2015-Mar-19 05:33N 47°18' W 002°10'8 7.8
2015-Mar-19 04:33N 47°12' W 002°17'1111.4
2015-Mar-19 03:32N 47°03' W 002°29'  

Dump ship's entire track history